Zakinthos, Greece
Current Conditions -  °F | °C
As of 6:20 AM on Saturday 25 Oct 2014 (Local Time) from LGZA Reporting Station
Light Rain Light Rain  
Wind Chill: 57°   Ceiling: NA
Heat Index: 57°   Visibility: NA
Dew Point: 55°   Wind: 1mph
Humidity: 94%   Direction: NA
Pressure: 29.74"   Gusts: NA
Location:  37.79°N, 20.9°E
Report Text: LGZA 250320Z AUTO VRB01KT //// -RA ////// 14/13 Q1007 RE//
Loading
Personal Weather Stations






























Interactive Weather Map
Tropical Storm Tracking
New forecast layout! Learn more

10-Day Weather Forecast

Advertisements
Track Severe Weather on mobile